sensor_id;sensor_type;location;lat;lon;timestamp;pressure;altitude;pressure_sealevel;temperature;humidity
9423;BME280;65863;49.506;10.400;2024-02-28T00:02:01;97990.03;;;4.27;92.97
9423;BME280;65863;49.506;10.400;2024-02-28T00:04:45;97978.66;;;4.30;92.50
9423;BME280;65863;49.506;10.400;2024-02-28T00:07:29;98011.22;;;4.36;92.34
9423;BME280;65863;49.506;10.400;2024-02-28T00:10:14;98004.41;;;4.37;92.93
9423;BME280;65863;49.506;10.400;2024-02-28T00:13:01;97957.50;;;4.10;92.26
9423;BME280;65863;49.506;10.400;2024-02-28T00:15:45;98007.63;;;4.46;92.26
9423;BME280;65863;49.506;10.400;2024-02-28T00:18:29;97988.06;;;4.10;92.54
9423;BME280;65863;49.506;10.400;2024-02-28T00:21:16;98016.31;;;4.26;92.88
9423;BME280;65863;49.506;10.400;2024-02-28T00:24:01;98025.38;;;4.32;93.41
9423;BME280;65863;49.506;10.400;2024-02-28T00:26:48;98022.13;;;4.17;93.86
9423;BME280;65863;49.506;10.400;2024-02-28T00:29:32;97942.19;;;3.75;93.45
9423;BME280;65863;49.506;10.400;2024-02-28T00:32:16;97999.19;;;4.05;92.95
9423;BME280;65863;49.506;10.400;2024-02-28T00:35:00;97954.31;;;3.72;92.93
9423;BME280;65863;49.506;10.400;2024-02-28T00:37:44;97944.22;;;3.69;93.17
9423;BME280;65863;49.506;10.400;2024-02-28T00:40:28;98027.72;;;4.11;93.41
9423;BME280;65863;49.506;10.400;2024-02-28T00:43:12;98031.28;;;4.06;93.79
9423;BME280;65863;49.506;10.400;2024-02-28T00:45:56;98040.81;;;4.22;93.59
9423;BME280;65863;49.506;10.400;2024-02-28T00:48:46;98041.84;;;4.19;94.26
9423;BME280;65863;49.506;10.400;2024-02-28T00:51:30;97997.44;;;4.02;94.04
9423;BME280;65863;49.506;10.400;2024-02-28T00:54:14;98001.94;;;4.22;92.70
9423;BME280;65863;49.506;10.400;2024-02-28T00:56:58;98011.03;;;4.17;92.74
9423;BME280;65863;49.506;10.400;2024-02-28T00:59:43;98024.13;;;4.33;92.84
9423;BME280;65863;49.506;10.400;2024-02-28T01:02:28;98007.53;;;4.05;92.82
9423;BME280;65863;49.506;10.400;2024-02-28T01:05:12;98030.25;;;4.09;93.05
9423;BME280;65863;49.506;10.400;2024-02-28T01:07:58;97999.22;;;3.88;93.31
9423;BME280;65863;49.506;10.400;2024-02-28T01:10:42;98007.56;;;3.88;93.79
9423;BME280;65863;49.506;10.400;2024-02-28T01:13:25;98017.66;;;3.91;93.67
9423;BME280;65863;49.506;10.400;2024-02-28T01:16:10;98013.88;;;3.83;93.96
9423;BME280;65863;49.506;10.400;2024-02-28T01:18:53;98027.72;;;4.00;94.21
9423;BME280;65863;49.506;10.400;2024-02-28T01:21:38;98022.44;;;3.96;94.31
9423;BME280;65863;49.506;10.400;2024-02-28T01:24:24;97958.13;;;3.64;94.47
9423;BME280;65863;49.506;10.400;2024-02-28T01:27:08;98006.56;;;3.85;93.90
9423;BME280;65863;49.506;10.400;2024-02-28T01:29:53;98021.66;;;4.01;93.66
9423;BME280;65863;49.506;10.400;2024-02-28T01:32:39;98037.34;;;3.99;93.74
9423;BME280;65863;49.506;10.400;2024-02-28T01:35:23;97997.72;;;3.70;94.72
9423;BME280;65863;49.506;10.400;2024-02-28T01:38:08;98016.91;;;3.96;95.01
9423;BME280;65863;49.506;10.400;2024-02-28T01:40:52;98027.00;;;3.76;94.98
9423;BME280;65863;49.506;10.400;2024-02-28T01:43:36;98026.25;;;3.76;94.67
9423;BME280;65863;49.506;10.400;2024-02-28T01:46:25;98058.56;;;3.96;94.84
9423;BME280;65863;49.506;10.400;2024-02-28T01:49:10;98049.22;;;3.88;93.97
9423;BME280;65863;49.506;10.400;2024-02-28T01:51:55;98036.09;;;3.77;93.95
9423;BME280;65863;49.506;10.400;2024-02-28T01:54:41;98018.97;;;3.56;94.61
9423;BME280;65863;49.506;10.400;2024-02-28T01:57:25;98021.22;;;3.63;94.64
9423;BME280;65863;49.506;10.400;2024-02-28T02:00:11;98026.50;;;3.72;94.82
9423;BME280;65863;49.506;10.400;2024-02-28T02:02:57;98027.53;;;3.69;94.69
9423;BME280;65863;49.506;10.400;2024-02-28T02:05:43;98038.13;;;3.71;95.17
9423;BME280;65863;49.506;10.400;2024-02-28T02:08:27;98048.72;;;3.72;95.24
9423;BME280;65863;49.506;10.400;2024-02-28T02:11:14;98031.81;;;3.65;95.47
9423;BME280;65863;49.506;10.400;2024-02-28T02:13:58;98001.53;;;3.44;95.48
9423;BME280;65863;49.506;10.400;2024-02-28T02:16:43;98037.63;;;3.72;95.48
9423;BME280;65863;49.506;10.400;2024-02-28T02:19:27;98042.41;;;3.83;94.83
9423;BME280;65863;49.506;10.400;2024-02-28T02:22:13;98073.19;;;4.02;94.22
9423;BME280;65863;49.506;10.400;2024-02-28T02:24:57;98038.88;;;3.77;94.30
9423;BME280;65863;49.506;10.400;2024-02-28T02:27:42;98083.56;;;3.90;94.79
9423;BME280;65863;49.506;10.400;2024-02-28T02:30:25;98070.69;;;3.87;94.54
9423;BME280;65863;49.506;10.400;2024-02-28T02:33:09;98005.09;;;3.39;94.67
9423;BME280;65863;49.506;10.400;2024-02-28T02:35:54;98054.53;;;3.63;95.11
9423;BME280;65863;49.506;10.400;2024-02-28T02:38:39;98034.34;;;3.45;94.90
9423;BME280;65863;49.506;10.400;2024-02-28T02:41:23;98033.31;;;3.49;95.42
9423;BME280;65863;49.506;10.400;2024-02-28T02:44:08;98075.47;;;3.75;95.05
9423;BME280;65863;49.506;10.400;2024-02-28T02:46:52;98090.13;;;3.82;94.61
9423;BME280;65863;49.506;10.400;2024-02-28T02:49:36;98050.75;;;3.55;94.51
9423;BME280;65863;49.506;10.400;2024-02-28T02:52:21;98097.44;;;3.73;94.53
9423;BME280;65863;49.506;10.400;2024-02-28T02:55:06;98050.47;;;3.47;95.37
9423;BME280;65863;49.506;10.400;2024-02-28T02:57:50;98129.00;;;3.82;95.39
9423;BME280;65863;49.506;10.400;2024-02-28T03:00:36;98110.06;;;3.74;95.28
9423;BME280;65863;49.506;10.400;2024-02-28T03:03:20;98105.50;;;3.77;94.87
9423;BME280;65863;49.506;10.400;2024-02-28T03:06:05;98107.81;;;3.73;94.88
9423;BME280;65863;49.506;10.400;2024-02-28T03:08:50;98125.47;;;3.98;94.88
9423;BME280;65863;49.506;10.400;2024-02-28T03:11:36;98104.00;;;3.82;94.62
9423;BME280;65863;49.506;10.400;2024-02-28T03:14:21;98123.97;;;4.03;93.95
9423;BME280;65863;49.506;10.400;2024-02-28T03:17:09;98132.53;;;3.99;93.80
9423;BME280;65863;49.506;10.400;2024-02-28T03:19:53;98097.94;;;3.66;94.49
9423;BME280;65863;49.506;10.400;2024-02-28T03:22:37;98143.16;;;3.95;94.61
9423;BME280;65863;49.506;10.400;2024-02-28T03:25:22;98110.59;;;3.84;94.17
9423;BME280;65863;49.506;10.400;2024-02-28T03:28:06;98161.06;;;4.05;94.36
9423;BME280;65863;49.506;10.400;2024-02-28T03:30:51;98149.44;;;4.07;94.12
9423;BME280;65863;49.506;10.400;2024-02-28T03:33:35;98140.13;;;3.93;93.46
9423;BME280;65863;49.506;10.400;2024-02-28T03:36:19;98139.13;;;4.07;93.30
9423;BME280;65863;49.506;10.400;2024-02-28T03:39:03;98076.22;;;3.48;93.48
9423;BME280;65863;49.506;10.400;2024-02-28T03:41:47;98141.63;;;3.83;94.03
9423;BME280;65863;49.506;10.400;2024-02-28T03:44:31;98150.22;;;3.79;94.25
9423;BME280;65863;49.506;10.400;2024-02-28T03:47:15;98078.19;;;3.24;95.12
9423;BME280;65863;49.506;10.400;2024-02-28T03:49:59;98145.41;;;3.74;94.62
9423;BME280;65863;49.506;10.400;2024-02-28T03:52:48;98178.50;;;3.89;94.81
9423;BME280;65863;49.506;10.400;2024-02-28T03:55:33;98160.06;;;3.74;94.88
9423;BME280;65863;49.506;10.400;2024-02-28T03:58:17;98173.94;;;3.74;95.28
9423;BME280;65863;49.506;10.400;2024-02-28T04:01:01;98166.88;;;3.79;95.72
9423;BME280;65863;49.506;10.400;2024-02-28T04:03:47;98174.19;;;3.76;95.23
9423;BME280;65863;49.506;10.400;2024-02-28T04:06:31;98184.81;;;3.89;94.42
9423;BME280;65863;49.506;10.400;2024-02-28T04:09:14;98201.75;;;3.97;94.58
9423;BME280;65863;49.506;10.400;2024-02-28T04:11:58;98114.03;;;3.34;93.95
9423;BME280;65863;49.506;10.400;2024-02-28T04:14:42;98183.75;;;3.70;94.78
9423;BME280;65863;49.506;10.400;2024-02-28T04:17:26;98172.63;;;3.58;94.94
9423;BME280;65863;49.506;10.400;2024-02-28T04:20:11;98167.84;;;3.59;94.98
9423;BME280;65863;49.506;10.400;2024-02-28T04:22:55;98197.66;;;3.75;94.95
9423;BME280;65863;49.506;10.400;2024-02-28T04:25:39;98202.97;;;3.79;94.94
9423;BME280;65863;49.506;10.400;2024-02-28T04:28:24;98228.75;;;3.96;95.21
9423;BME280;65863;49.506;10.400;2024-02-28T04:31:08;98210.06;;;3.86;94.97
9423;BME280;65863;49.506;10.400;2024-02-28T04:33:53;98222.66;;;3.87;94.70
9423;BME280;65863;49.506;10.400;2024-02-28T04:36:37;98147.59;;;3.41;94.62
9423;BME280;65863;49.506;10.400;2024-02-28T04:39:21;98212.84;;;3.86;94.21
9423;BME280;65863;49.506;10.400;2024-02-28T04:42:05;98198.44;;;3.76;94.77
9423;BME280;65863;49.506;10.400;2024-02-28T04:44:50;98222.91;;;3.77;94.93
9423;BME280;65863;49.506;10.400;2024-02-28T04:47:34;98223.66;;;3.78;95.06
9423;BME280;65863;49.506;10.400;2024-02-28T04:50:18;98227.69;;;3.77;95.46
9423;BME280;65863;49.506;10.400;2024-02-28T04:53:02;98233.78;;;3.87;95.30
9423;BME280;65863;49.506;10.400;2024-02-28T04:55:47;98222.13;;;3.77;95.19
9423;BME280;65863;49.506;10.400;2024-02-28T04:58:32;98234.81;;;4.01;94.73
9423;BME280;65863;49.506;10.400;2024-02-28T05:01:16;98139.00;;;3.22;95.35
9423;BME280;65863;49.506;10.400;2024-02-28T05:04:03;98185.75;;;3.52;95.33
9423;BME280;65863;49.506;10.400;2024-02-28T05:06:47;98213.78;;;3.71;96.15
9423;BME280;65863;49.506;10.400;2024-02-28T05:09:31;98154.16;;;3.33;95.91
9423;BME280;65863;49.506;10.400;2024-02-28T05:12:15;98209.50;;;3.59;95.67
9423;BME280;65863;49.506;10.400;2024-02-28T05:14:59;98166.03;;;3.39;95.66
9423;BME280;65863;49.506;10.400;2024-02-28T05:17:45;98217.56;;;3.62;96.13
9423;BME280;65863;49.506;10.400;2024-02-28T05:20:29;98207.72;;;3.56;95.90
9423;BME280;65863;49.506;10.400;2024-02-28T05:23:13;98243.13;;;3.84;95.83
9423;BME280;65863;49.506;10.400;2024-02-28T05:25:59;98222.63;;;3.64;96.19
9423;BME280;65863;49.506;10.400;2024-02-28T05:28:48;98239.06;;;3.79;96.20
9423;BME280;65863;49.506;10.400;2024-02-28T05:31:32;98229.22;;;3.78;96.09
9423;BME280;65863;49.506;10.400;2024-02-28T05:34:16;98213.53;;;3.58;96.13
9423;BME280;65863;49.506;10.400;2024-02-28T05:37:01;98235.28;;;3.76;96.06
9423;BME280;65863;49.506;10.400;2024-02-28T05:39:47;98235.00;;;3.69;96.36
9423;BME280;65863;49.506;10.400;2024-02-28T05:42:31;98179.91;;;3.33;95.81
9423;BME280;65863;49.506;10.400;2024-02-28T05:45:15;98245.91;;;3.84;95.87
9423;BME280;65863;49.506;10.400;2024-02-28T05:47:59;98263.31;;;3.78;96.25
9423;BME280;65863;49.506;10.400;2024-02-28T05:50:44;98231.69;;;3.59;96.32
9423;BME280;65863;49.506;10.400;2024-02-28T05:53:28;98243.84;;;3.61;96.22
9423;BME280;65863;49.506;10.400;2024-02-28T05:56:16;98238.00;;;3.59;96.21
9423;BME280;65863;49.506;10.400;2024-02-28T05:59:03;98247.84;;;3.60;96.35
9423;BME280;65863;49.506;10.400;2024-02-28T06:01:47;98236.97;;;3.51;96.15
9423;BME280;65863;49.506;10.400;2024-02-28T06:04:31;98240.50;;;3.52;96.09
9423;BME280;65863;49.506;10.400;2024-02-28T06:07:16;98236.19;;;3.45;96.63
9423;BME280;65863;49.506;10.400;2024-02-28T06:10:00;98210.41;;;3.27;96.09
9423;BME280;65863;49.506;10.400;2024-02-28T06:12:45;98293.06;;;3.72;96.23
9423;BME280;65863;49.506;10.400;2024-02-28T06:15:29;98251.88;;;3.54;96.64
9423;BME280;65863;49.506;10.400;2024-02-28T06:18:14;98274.63;;;3.69;96.40
9423;BME280;65863;49.506;10.400;2024-02-28T06:20:59;98292.38;;;3.89;96.17
9423;BME280;65863;49.506;10.400;2024-02-28T06:23:43;98294.84;;;3.81;96.12
9423;BME280;65863;49.506;10.400;2024-02-28T06:26:27;98256.41;;;3.57;96.22
9423;BME280;65863;49.506;10.400;2024-02-28T06:29:11;98270.81;;;3.61;95.75
9423;BME280;65863;49.506;10.400;2024-02-28T06:31:55;98284.19;;;3.62;96.14
9423;BME280;65863;49.506;10.400;2024-02-28T06:34:40;98302.94;;;3.79;96.25
9423;BME280;65863;49.506;10.400;2024-02-28T06:37:23;98286.00;;;3.71;96.84
9423;BME280;65863;49.506;10.400;2024-02-28T06:40:09;98283.22;;;3.77;96.36
9423;BME280;65863;49.506;10.400;2024-02-28T06:42:53;98221.28;;;3.42;96.12
9423;BME280;65863;49.506;10.400;2024-02-28T06:45:38;98282.81;;;3.95;94.73
9423;BME280;65863;49.506;10.400;2024-02-28T06:48:22;98290.09;;;3.82;95.14
9423;BME280;65863;49.506;10.400;2024-02-28T06:51:08;98283.22;;;3.77;95.55
9423;BME280;65863;49.506;10.400;2024-02-28T06:53:52;98298.94;;;3.86;95.42
9423;BME280;65863;49.506;10.400;2024-02-28T06:56:36;98288.78;;;3.77;95.69
9423;BME280;65863;49.506;10.400;2024-02-28T06:59:20;98281.00;;;3.87;95.01
9423;BME280;65863;49.506;10.400;2024-02-28T07:02:04;98333.34;;;4.11;94.18
9423;BME280;65863;49.506;10.400;2024-02-28T07:04:49;98328.56;;;4.11;93.69
9423;BME280;65863;49.506;10.400;2024-02-28T07:07:33;98319.66;;;3.90;94.74
9423;BME280;65863;49.506;10.400;2024-02-28T07:10:19;98273.59;;;3.61;94.34
9423;BME280;65863;49.506;10.400;2024-02-28T07:13:03;98312.56;;;3.89;94.05
9423;BME280;65863;49.506;10.400;2024-02-28T07:15:48;98298.66;;;3.84;93.88
9423;BME280;65863;49.506;10.400;2024-02-28T07:18:33;98306.78;;;3.93;93.36
9423;BME280;65863;49.506;10.400;2024-02-28T07:21:16;98319.41;;;4.05;93.59
9423;BME280;65863;49.506;10.400;2024-02-28T07:24:00;98278.69;;;3.74;93.53
9423;BME280;65863;49.506;10.400;2024-02-28T07:26:45;98345.97;;;4.18;92.66
9423;BME280;65863;49.506;10.400;2024-02-28T07:29:30;98335.63;;;4.24;92.52
9423;BME280;65863;49.506;10.400;2024-02-28T07:32:16;98321.44;;;3.99;92.44
9423;BME280;65863;49.506;10.400;2024-02-28T07:35:01;98358.38;;;4.22;92.35
9423;BME280;65863;49.506;10.400;2024-02-28T07:37:46;98339.19;;;4.19;92.43
9423;BME280;65863;49.506;10.400;2024-02-28T07:40:31;98368.53;;;4.42;91.55
9423;BME280;65863;49.506;10.400;2024-02-28T07:43:15;98365.22;;;4.21;91.25
9423;BME280;65863;49.506;10.400;2024-02-28T07:45:59;98352.28;;;4.12;91.75
9423;BME280;65863;49.506;10.400;2024-02-28T07:48:43;98310.78;;;3.86;91.36
9423;BME280;65863;49.506;10.400;2024-02-28T07:51:28;98343.97;;;4.18;91.69
9423;BME280;65863;49.506;10.400;2024-02-28T07:54:13;98358.13;;;4.26;91.94
9423;BME280;65863;49.506;10.400;2024-02-28T07:56:57;98366.50;;;4.37;91.48
9423;BME280;65863;49.506;10.400;2024-02-28T07:59:42;98357.13;;;4.29;90.97
9423;BME280;65863;49.506;10.400;2024-02-28T08:02:26;98392.81;;;4.47;90.65
9423;BME280;65863;49.506;10.400;2024-02-28T08:05:10;98378.34;;;4.32;90.93
9423;BME280;65863;49.506;10.400;2024-02-28T08:07:57;98370.28;;;4.34;90.74
9423;BME280;65863;49.506;10.400;2024-02-28T08:10:42;98401.66;;;4.46;90.64
9423;BME280;65863;49.506;10.400;2024-02-28T08:13:30;98390.00;;;4.36;90.73
9423;BME280;65863;49.506;10.400;2024-02-28T08:16:16;98409.75;;;4.50;90.94
9423;BME280;65863;49.506;10.400;2024-02-28T08:19:00;98380.19;;;4.58;90.06
9423;BME280;65863;49.506;10.400;2024-02-28T08:21:44;98337.66;;;4.18;89.64
9423;BME280;65863;49.506;10.400;2024-02-28T08:24:28;98418.16;;;4.72;89.79
9423;BME280;65863;49.506;10.400;2024-02-28T08:27:12;98409.03;;;4.77;90.21
9423;BME280;65863;49.506;10.400;2024-02-28T08:29:56;98357.16;;;4.35;89.93
9423;BME280;65863;49.506;10.400;2024-02-28T08:32:41;98423.75;;;4.95;89.41
9423;BME280;65863;49.506;10.400;2024-02-28T08:35:25;98375.38;;;4.58;88.96
9423;BME280;65863;49.506;10.400;2024-02-28T08:38:10;98411.09;;;4.94;88.01
9423;BME280;65863;49.506;10.400;2024-02-28T08:40:55;98422.94;;;4.89;88.43
9423;BME280;65863;49.506;10.400;2024-02-28T08:43:39;98436.63;;;5.15;87.82
9423;BME280;65863;49.506;10.400;2024-02-28T08:46:24;98380.97;;;4.92;87.05
9423;BME280;65863;49.506;10.400;2024-02-28T08:49:08;98358.44;;;4.62;88.02
9423;BME280;65863;49.506;10.400;2024-02-28T08:51:52;98370.84;;;4.61;87.82
9423;BME280;65863;49.506;10.400;2024-02-28T08:54:38;98375.13;;;4.62;87.83
9423;BME280;65863;49.506;10.400;2024-02-28T08:57:24;98357.94;;;4.58;88.44
9423;BME280;65863;49.506;10.400;2024-02-28T09:00:09;98373.16;;;4.91;88.09
9423;BME280;65863;49.506;10.400;2024-02-28T09:02:54;98441.94;;;5.35;86.21
9423;BME280;65863;49.506;10.400;2024-02-28T09:05:37;98421.44;;;5.39;86.39
9423;BME280;65863;49.506;10.400;2024-02-28T09:08:22;98442.72;;;5.42;86.11
9423;BME280;65863;49.506;10.400;2024-02-28T09:11:06;98432.31;;;5.54;85.00
9423;BME280;65863;49.506;10.400;2024-02-28T09:13:50;98411.59;;;5.32;85.57
9423;BME280;65863;49.506;10.400;2024-02-28T09:16:34;98355.94;;;4.98;84.70
9423;BME280;65863;49.506;10.400;2024-02-28T09:19:18;98420.44;;;5.08;86.16
9423;BME280;65863;49.506;10.400;2024-02-28T09:22:02;98427.28;;;5.12;86.20
9423;BME280;65863;49.506;10.400;2024-02-28T09:24:46;98364.78;;;4.62;86.85
9423;BME280;65863;49.506;10.400;2024-02-28T09:27:32;98370.06;;;4.55;87.52
9423;BME280;65863;49.506;10.400;2024-02-28T09:30:16;98421.47;;;5.05;87.47
9423;BME280;65863;49.506;10.400;2024-02-28T09:33:02;98432.34;;;5.08;87.87
9423;BME280;65863;49.506;10.400;2024-02-28T09:35:45;98407.78;;;5.18;86.81
9423;BME280;65863;49.506;10.400;2024-02-28T09:38:30;98430.78;;;5.52;86.50
9423;BME280;65863;49.506;10.400;2024-02-28T09:41:16;98417.84;;;5.66;85.65
9423;BME280;65863;49.506;10.400;2024-02-28T09:44:02;98438.06;;;5.84;84.70
9423;BME280;65863;49.506;10.400;2024-02-28T09:46:47;98410.22;;;5.73;84.59
9423;BME280;65863;49.506;10.400;2024-02-28T09:49:35;98409.22;;;5.76;83.58
9423;BME280;65863;49.506;10.400;2024-02-28T09:52:21;98411.53;;;5.66;83.51
9423;BME280;65863;49.506;10.400;2024-02-28T09:55:05;98426.41;;;5.97;83.90
9423;BME280;65863;49.506;10.400;2024-02-28T09:57:50;98429.19;;;5.97;82.83
9423;BME280;65863;49.506;10.400;2024-02-28T10:00:37;98426.59;;;6.22;82.03
9423;BME280;65863;49.506;10.400;2024-02-28T10:03:22;98426.00;;;6.40;81.24
9423;BME280;65863;49.506;10.400;2024-02-28T10:06:10;98433.22;;;6.60;80.25
9423;BME280;65863;49.506;10.400;2024-02-28T10:08:55;98421.88;;;6.52;79.99
9423;BME280;65863;49.506;10.400;2024-02-28T10:11:41;98462.78;;;6.80;80.48
9423;BME280;65863;49.506;10.400;2024-02-28T10:14:27;98440.44;;;6.38;80.70
9423;BME280;65863;49.506;10.400;2024-02-28T10:17:11;98464.50;;;6.47;79.87
9423;BME280;65863;49.506;10.400;2024-02-28T10:19:58;98458.31;;;6.07;81.02
9423;BME280;65863;49.506;10.400;2024-02-28T10:22:42;98462.13;;;6.04;82.09
9423;BME280;65863;49.506;10.400;2024-02-28T10:25:25;98464.44;;;5.77;82.98
9423;BME280;65863;49.506;10.400;2024-02-28T10:28:10;98475.28;;;5.92;82.87
9423;BME280;65863;49.506;10.400;2024-02-28T10:30:55;98450.47;;;6.00;82.53
9423;BME280;65863;49.506;10.400;2024-02-28T10:33:41;98483.25;;;6.52;81.33
9423;BME280;65863;49.506;10.400;2024-02-28T10:36:25;98431.69;;;6.65;80.81
9423;BME280;65863;49.506;10.400;2024-02-28T10:39:11;98446.69;;;7.34;78.60
9423;BME280;65863;49.506;10.400;2024-02-28T10:41:56;98458.28;;;7.74;76.44
9423;BME280;65863;49.506;10.400;2024-02-28T10:44:41;98481.28;;;7.86;75.03
9423;BME280;65863;49.506;10.400;2024-02-28T10:47:27;98454.44;;;7.77;75.00
9423;BME280;65863;49.506;10.400;2024-02-28T10:50:10;98448.44;;;7.92;75.63
9423;BME280;65863;49.506;10.400;2024-02-28T10:53:01;98443.97;;;8.27;73.17
9423;BME280;65863;49.506;10.400;2024-02-28T10:55:48;98457.22;;;8.26;72.59
9423;BME280;65863;49.506;10.400;2024-02-28T10:58:36;98487.97;;;8.26;73.56
9423;BME280;65863;49.506;10.400;2024-02-28T11:01:23;98448.25;;;8.09;74.06
9423;BME280;65863;49.506;10.400;2024-02-28T11:04:07;98471.66;;;8.06;75.01
9423;BME280;65863;49.506;10.400;2024-02-28T11:06:55;98469.78;;;7.65;73.58
9423;BME280;65863;49.506;10.400;2024-02-28T11:09:43;98483.91;;;7.48;76.00
9423;BME280;65863;49.506;10.400;2024-02-28T11:12:29;98493.13;;;7.67;75.25
9423;BME280;65863;49.506;10.400;2024-02-28T11:15:16;98431.72;;;7.31;76.34
9423;BME280;65863;49.506;10.400;2024-02-28T11:18:07;98475.22;;;8.06;74.99
9423;BME280;65863;49.506;10.400;2024-02-28T11:20:55;98470.53;;;8.15;73.19
9423;BME280;65863;49.506;10.400;2024-02-28T11:23:40;98476.84;;;8.46;73.11
9423;BME280;65863;49.506;10.400;2024-02-28T11:26:25;98471.53;;;8.17;73.92
9423;BME280;65863;49.506;10.400;2024-02-28T11:29:10;98499.47;;;8.42;73.45
9423;BME280;65863;49.506;10.400;2024-02-28T11:31:56;98482.69;;;8.42;74.15
9423;BME280;65863;49.506;10.400;2024-02-28T11:34:42;98494.34;;;8.71;73.47
9423;BME280;65863;49.506;10.400;2024-02-28T11:37:26;98431.00;;;8.05;70.16
9423;BME280;65863;49.506;10.400;2024-02-28T11:40:10;98487.28;;;8.45;72.04
9423;BME280;65863;49.506;10.400;2024-02-28T11:42:55;98491.88;;;8.18;71.63
9423;BME280;65863;49.506;10.400;2024-02-28T11:45:43;98512.44;;;8.20;71.43
9423;BME280;65863;49.506;10.400;2024-02-28T11:48:28;98478.06;;;8.01;71.90
9423;BME280;65863;49.506;10.400;2024-02-28T11:51:12;98453.34;;;8.30;70.22
9423;BME280;65863;49.506;10.400;2024-02-28T11:53:56;98423.38;;;8.49;66.77
9423;BME280;65863;49.506;10.400;2024-02-28T11:56:40;98484.47;;;8.45;67.59
9423;BME280;65863;49.506;10.400;2024-02-28T11:59:24;98485.91;;;8.52;67.79
9423;BME280;65863;49.506;10.400;2024-02-28T12:02:12;98469.59;;;8.31;70.10
9423;BME280;65863;49.506;10.400;2024-02-28T12:05:02;98447.31;;;8.01;69.59
9423;BME280;65863;49.506;10.400;2024-02-28T12:07:52;98495.41;;;8.43;69.92
9423;BME280;65863;49.506;10.400;2024-02-28T12:10:38;98467.41;;;7.99;69.97
9423;BME280;65863;49.506;10.400;2024-02-28T12:13:24;98478.81;;;7.76;70.86
9423;BME280;65863;49.506;10.400;2024-02-28T12:16:08;98492.69;;;7.88;71.15
9423;BME280;65863;49.506;10.400;2024-02-28T12:18:53;98463.44;;;8.57;69.96
9423;BME280;65863;49.506;10.400;2024-02-28T12:21:38;98479.44;;;9.79;65.96
9423;BME280;65863;49.506;10.400;2024-02-28T12:24:22;98454.22;;;9.92;64.17
9423;BME280;65863;49.506;10.400;2024-02-28T12:27:07;98462.53;;;9.39;65.51
9423;BME280;65863;49.506;10.400;2024-02-28T12:29:51;98429.63;;;8.74;64.94
9423;BME280;65863;49.506;10.400;2024-02-28T12:32:35;98480.44;;;9.17;65.28
9423;BME280;65863;49.506;10.400;2024-02-28T12:35:20;98428.94;;;8.87;66.59
9423;BME280;65863;49.506;10.400;2024-02-28T12:38:04;98448.78;;;8.51;67.52
9423;BME280;65863;49.506;10.400;2024-02-28T12:40:49;98463.16;;;8.80;68.01
9423;BME280;65863;49.506;10.400;2024-02-28T12:43:33;98476.16;;;8.96;66.54
9423;BME280;65863;49.506;10.400;2024-02-28T12:46:18;98473.31;;;8.83;67.48
9423;BME280;65863;49.506;10.400;2024-02-28T12:49:02;98465.66;;;8.84;66.86
9423;BME280;65863;49.506;10.400;2024-02-28T12:51:46;98460.97;;;8.92;67.03
9423;BME280;65863;49.506;10.400;2024-02-28T12:54:32;98472.91;;;8.92;70.63
9423;BME280;65863;49.506;10.400;2024-02-28T12:57:16;98434.03;;;8.89;70.47
9423;BME280;65863;49.506;10.400;2024-02-28T13:00:01;98469.06;;;9.28;69.55
9423;BME280;65863;49.506;10.400;2024-02-28T13:02:45;98456.22;;;8.68;69.13
9423;BME280;65863;49.506;10.400;2024-02-28T13:05:29;98472.84;;;9.30;69.55
9423;BME280;65863;49.506;10.400;2024-02-28T13:08:13;98373.59;;;8.04;70.20
9423;BME280;65863;49.506;10.400;2024-02-28T13:10:59;98440.84;;;8.55;71.48
9423;BME280;65863;49.506;10.400;2024-02-28T13:13:43;98450.81;;;8.70;70.47
9423;BME280;65863;49.506;10.400;2024-02-28T13:16:27;98458.03;;;8.65;70.49
9423;BME280;65863;49.506;10.400;2024-02-28T13:19:11;98426.03;;;8.60;69.88
9423;BME280;65863;49.506;10.400;2024-02-28T13:21:55;98462.53;;;8.87;70.28
9423;BME280;65863;49.506;10.400;2024-02-28T13:24:39;98437.75;;;8.78;70.71
9423;BME280;65863;49.506;10.400;2024-02-28T13:27:24;98415.88;;;8.76;70.04
9423;BME280;65863;49.506;10.400;2024-02-28T13:30:08;98443.19;;;9.22;68.51
9423;BME280;65863;49.506;10.400;2024-02-28T13:32:55;98422.78;;;9.08;68.83
9423;BME280;65863;49.506;10.400;2024-02-28T13:35:40;98438.88;;;8.69;69.73
9423;BME280;65863;49.506;10.400;2024-02-28T13:38:24;98423.00;;;9.10;69.62
9423;BME280;65863;49.506;10.400;2024-02-28T13:41:08;98450.47;;;9.44;67.57
9423;BME280;65863;49.506;10.400;2024-02-28T13:43:52;98433.22;;;9.40;67.73
9423;BME280;65863;49.506;10.400;2024-02-28T13:46:37;98378.59;;;9.01;67.33
9423;BME280;65863;49.506;10.400;2024-02-28T13:49:25;98397.69;;;9.61;66.70
9423;BME280;65863;49.506;10.400;2024-02-28T13:52:10;98445.56;;;9.63;67.02
9423;BME280;65863;49.506;10.400;2024-02-28T13:54:55;98437.91;;;9.64;67.30
9423;BME280;65863;49.506;10.400;2024-02-28T13:57:40;98412.69;;;9.18;67.59
9423;BME280;65863;49.506;10.400;2024-02-28T14:00:26;98356.91;;;8.55;69.08
9423;BME280;65863;49.506;10.400;2024-02-28T14:03:10;98348.63;;;8.82;68.64
9423;BME280;65863;49.506;10.400;2024-02-28T14:05:54;98397.69;;;9.61;67.26
9423;BME280;65863;49.506;10.400;2024-02-28T14:08:38;98394.22;;;9.42;67.75
9423;BME280;65863;49.506;10.400;2024-02-28T14:11:22;98353.31;;;9.06;67.42
9423;BME280;65863;49.506;10.400;2024-02-28T14:14:07;98409.09;;;9.50;67.91
9423;BME280;65863;49.506;10.400;2024-02-28T14:16:51;98396.94;;;8.83;68.35
9423;BME280;65863;49.506;10.400;2024-02-28T14:19:35;98418.69;;;9.41;67.47
9423;BME280;65863;49.506;10.400;2024-02-28T14:22:21;98365.75;;;9.38;66.26
9423;BME280;65863;49.506;10.400;2024-02-28T14:25:05;98421.66;;;9.76;65.91
9423;BME280;65863;49.506;10.400;2024-02-28T14:27:49;98386.28;;;9.86;65.35
9423;BME280;65863;49.506;10.400;2024-02-28T14:30:33;98421.44;;;9.87;64.84
9423;BME280;65863;49.506;10.400;2024-02-28T14:33:18;98437.09;;;10.09;64.93
9423;BME280;65863;49.506;10.400;2024-02-28T14:36:04;98416.25;;;10.18;64.31
9423;BME280;65863;49.506;10.400;2024-02-28T14:38:49;98409.16;;;10.04;64.27
9423;BME280;65863;49.506;10.400;2024-02-28T14:41:34;98391.13;;;10.12;64.04
9423;BME280;65863;49.506;10.400;2024-02-28T14:44:18;98396.81;;;10.20;64.24